sensor_id;sensor_type;location;lat;lon;timestamp;pressure;altitude;pressure_sealevel;temperature;humidity
71126;BME280;58785;55.566;38.058;2022-08-27T00:00:13;100907.16;;;17.98;70.15
71126;BME280;58785;55.566;38.058;2022-08-27T00:02:43;100903.28;;;17.92;70.39
71126;BME280;58785;55.566;38.058;2022-08-27T00:05:11;100902.63;;;17.90;70.19
71126;BME280;58785;55.566;38.058;2022-08-27T00:07:37;100910.06;;;17.88;70.21
71126;BME280;58785;55.566;38.058;2022-08-27T00:10:04;100910.72;;;17.90;70.03
71126;BME280;58785;55.566;38.058;2022-08-27T00:12:32;100904.66;;;17.88;70.39
71126;BME280;58785;55.566;38.058;2022-08-27T00:14:58;100907.53;;;17.87;70.06
71126;BME280;58785;55.566;38.058;2022-08-27T00:17:25;100898.47;;;17.79;69.97
71126;BME280;58785;55.566;38.058;2022-08-27T00:19:51;100908.59;;;17.77;70.21
71126;BME280;58785;55.566;38.058;2022-08-27T00:22:26;100893.41;;;17.68;70.01
71126;BME280;58785;55.566;38.058;2022-08-27T00:24:52;100906.75;;;17.70;70.38
71126;BME280;58785;55.566;38.058;2022-08-27T00:27:18;100913.13;;;17.69;70.60
71126;BME280;58785;55.566;38.058;2022-08-27T00:29:45;100916.19;;;17.66;70.38
71126;BME280;58785;55.566;38.058;2022-08-27T00:32:11;100906.09;;;17.60;70.54
71126;BME280;58785;55.566;38.058;2022-08-27T00:34:36;100911.00;;;17.56;70.53
71126;BME280;58785;55.566;38.058;2022-08-27T00:37:04;100912.50;;;17.59;70.80
71126;BME280;58785;55.566;38.058;2022-08-27T00:39:32;100913.53;;;17.58;70.33
71126;BME280;58785;55.566;38.058;2022-08-27T00:41:58;100919.09;;;17.56;70.39
71126;BME280;58785;55.566;38.058;2022-08-27T00:44:26;100915.72;;;17.54;70.26
71126;BME280;58785;55.566;38.058;2022-08-27T00:46:54;100921.28;;;17.52;70.36
71126;BME280;58785;55.566;38.058;2022-08-27T00:49:31;100915.22;;;17.50;70.22
71126;BME280;58785;55.566;38.058;2022-08-27T00:54:50;100921.63;;;17.41;70.30
71126;BME280;58785;55.566;38.058;2022-08-27T00:57:16;100918.09;;;17.41;70.44
71126;BME280;58785;55.566;38.058;2022-08-27T00:59:42;100911.38;;;17.37;70.60
71126;BME280;58785;55.566;38.058;2022-08-27T01:02:09;100916.78;;;17.37;70.40
71126;BME280;58785;55.566;38.058;2022-08-27T01:07:23;100914.56;;;17.32;70.82
71126;BME280;58785;55.566;38.058;2022-08-27T01:09:51;100913.91;;;17.30;71.02
71126;BME280;58785;55.566;38.058;2022-08-27T01:12:17;100910.56;;;17.28;70.95
71126;BME280;58785;55.566;38.058;2022-08-27T01:14:44;100919.66;;;17.27;71.04
71126;BME280;58785;55.566;38.058;2022-08-27T01:17:11;100917.13;;;17.26;71.28
71126;BME280;58785;55.566;38.058;2022-08-27T01:19:48;100915.59;;;17.23;71.03
71126;BME280;58785;55.566;38.058;2022-08-27T01:24:51;100916.97;;;17.19;71.06
71126;BME280;58785;55.566;38.058;2022-08-27T01:27:21;100904.69;;;17.16;71.14
71126;BME280;58785;55.566;38.058;2022-08-27T01:29:49;100908.56;;;17.14;71.13
71126;BME280;58785;55.566;38.058;2022-08-27T01:32:22;100911.25;;;17.14;71.13
71126;BME280;58785;55.566;38.058;2022-08-27T01:34:48;100918.66;;;17.12;71.48
71126;BME280;58785;55.566;38.058;2022-08-27T01:37:15;100917.16;;;17.01;71.91
71126;BME280;58785;55.566;38.058;2022-08-27T01:39:41;100929.59;;;17.02;72.04
71126;BME280;58785;55.566;38.058;2022-08-27T01:42:19;100928.59;;;17.03;72.37
71126;BME280;58785;55.566;38.058;2022-08-27T01:44:53;100917.66;;;16.97;72.21
71126;BME280;58785;55.566;38.058;2022-08-27T01:47:21;100925.06;;;17.03;72.07
71126;BME280;58785;55.566;38.058;2022-08-27T01:49:47;100931.16;;;17.05;72.00
71126;BME280;58785;55.566;38.058;2022-08-27T01:52:17;100925.41;;;17.00;72.03
71126;BME280;58785;55.566;38.058;2022-08-27T01:54:43;100934.31;;;17.00;71.93
71126;BME280;58785;55.566;38.058;2022-08-27T01:57:09;100946.13;;;16.99;72.11
71126;BME280;58785;55.566;38.058;2022-08-27T01:59:35;100950.00;;;16.97;72.07
71126;BME280;58785;55.566;38.058;2022-08-27T02:02:01;100934.50;;;16.90;72.06
71126;BME280;58785;55.566;38.058;2022-08-27T02:04:28;100941.06;;;16.88;72.25
71126;BME280;58785;55.566;38.058;2022-08-27T02:06:55;100945.09;;;16.92;72.80
71126;BME280;58785;55.566;38.058;2022-08-27T02:09:20;100937.38;;;16.89;72.69
71126;BME280;58785;55.566;38.058;2022-08-27T02:11:46;100942.41;;;16.92;72.67
71126;BME280;58785;55.566;38.058;2022-08-27T02:14:12;100937.38;;;16.89;72.78
71126;BME280;58785;55.566;38.058;2022-08-27T02:16:38;100940.72;;;16.91;72.78
71126;BME280;58785;55.566;38.058;2022-08-27T02:19:04;100945.63;;;16.87;72.94
71126;BME280;58785;55.566;38.058;2022-08-27T02:21:30;100943.75;;;16.88;72.97
71126;BME280;58785;55.566;38.058;2022-08-27T02:23:59;100950.50;;;16.92;72.82
71126;BME280;58785;55.566;38.058;2022-08-27T02:26:25;100954.03;;;16.92;72.71
71126;BME280;58785;55.566;38.058;2022-08-27T02:28:52;100942.25;;;16.85;72.87
71126;BME280;58785;55.566;38.058;2022-08-27T02:31:19;100952.34;;;16.91;72.74
71126;BME280;58785;55.566;38.058;2022-08-27T02:33:45;100939.38;;;16.87;72.76
71126;BME280;58785;55.566;38.058;2022-08-27T02:36:11;100948.81;;;16.91;72.78
71126;BME280;58785;55.566;38.058;2022-08-27T02:38:38;100952.34;;;16.91;72.70
71126;BME280;58785;55.566;38.058;2022-08-27T02:41:06;100953.72;;;16.95;72.59
71126;BME280;58785;55.566;38.058;2022-08-27T02:43:32;100944.97;;;16.93;72.80
71126;BME280;58785;55.566;38.058;2022-08-27T02:45:58;100954.03;;;17.01;72.78
71126;BME280;58785;55.566;38.058;2022-08-27T02:48:23;100951.50;;;16.99;72.54
71126;BME280;58785;55.566;38.058;2022-08-27T02:50:50;100948.81;;;16.99;72.44
71126;BME280;58785;55.566;38.058;2022-08-27T02:53:16;100954.56;;;17.04;72.59
71126;BME280;58785;55.566;38.058;2022-08-27T02:55:42;100942.06;;;17.03;72.77
71126;BME280;58785;55.566;38.058;2022-08-27T02:58:08;100945.44;;;17.13;72.48
71126;BME280;58785;55.566;38.058;2022-08-27T03:00:34;100959.75;;;17.22;72.34
71126;BME280;58785;55.566;38.058;2022-08-27T03:03:01;100965.66;;;17.26;72.29
71126;BME280;58785;55.566;38.058;2022-08-27T03:05:30;100959.75;;;17.30;72.22
71126;BME280;58785;55.566;38.058;2022-08-27T03:07:55;100962.94;;;17.42;71.96
71126;BME280;58785;55.566;38.058;2022-08-27T03:10:24;100963.56;;;17.52;72.16
71126;BME280;58785;55.566;38.058;2022-08-27T03:12:49;100958.34;;;17.59;71.84
71126;BME280;58785;55.566;38.058;2022-08-27T03:15:17;100968.81;;;17.70;71.53
71126;BME280;58785;55.566;38.058;2022-08-27T03:17:43;100965.41;;;17.84;71.21
71126;BME280;58785;55.566;38.058;2022-08-27T03:20:27;100962.63;;;18.00;70.86
71126;BME280;58785;55.566;38.058;2022-08-27T03:22:53;100967.78;;;18.18;70.82
71126;BME280;58785;55.566;38.058;2022-08-27T03:25:19;100965.00;;;18.34;70.50
71126;BME280;58785;55.566;38.058;2022-08-27T03:27:47;100972.53;;;18.47;70.12
71126;BME280;58785;55.566;38.058;2022-08-27T03:30:17;100966.53;;;18.60;69.96
71126;BME280;58785;55.566;38.058;2022-08-27T03:32:43;100971.50;;;18.79;69.54
71126;BME280;58785;55.566;38.058;2022-08-27T03:35:11;100964.13;;;18.96;69.35
71126;BME280;58785;55.566;38.058;2022-08-27T03:37:38;100967.69;;;19.11;69.06
71126;BME280;58785;55.566;38.058;2022-08-27T03:40:04;100975.69;;;19.28;68.76
71126;BME280;58785;55.566;38.058;2022-08-27T03:42:30;100969.63;;;19.40;68.64
71126;BME280;58785;55.566;38.058;2022-08-27T03:44:56;100970.84;;;19.52;68.39
71126;BME280;58785;55.566;38.058;2022-08-27T03:47:22;100962.06;;;19.59;68.33
71126;BME280;58785;55.566;38.058;2022-08-27T03:49:48;100964.59;;;19.75;67.88
71126;BME280;58785;55.566;38.058;2022-08-27T03:52:14;100977.06;;;19.91;67.70
71126;BME280;58785;55.566;38.058;2022-08-27T03:54:40;100977.44;;;20.02;67.25
71126;BME280;58785;55.566;38.058;2022-08-27T03:57:06;100971.28;;;20.08;66.98
71126;BME280;58785;55.566;38.058;2022-08-27T03:59:32;100971.81;;;20.19;66.38
71126;BME280;58785;55.566;38.058;2022-08-27T04:01:59;100972.63;;;20.34;66.24
71126;BME280;58785;55.566;38.058;2022-08-27T04:04:24;100981.41;;;20.51;65.45
71126;BME280;58785;55.566;38.058;2022-08-27T04:06:51;100988.09;;;20.70;65.13
71126;BME280;58785;55.566;38.058;2022-08-27T04:09:17;100980.91;;;20.83;64.33
71126;BME280;58785;55.566;38.058;2022-08-27T04:11:42;100982.88;;;20.89;63.70
71126;BME280;58785;55.566;38.058;2022-08-27T04:14:08;100982.56;;;20.99;63.60
71126;BME280;58785;55.566;38.058;2022-08-27T04:16:34;100981.13;;;21.03;63.31
71126;BME280;58785;55.566;38.058;2022-08-27T04:19:01;100992.09;;;21.16;62.89
71126;BME280;58785;55.566;38.058;2022-08-27T04:21:27;100983.91;;;21.31;62.39
71126;BME280;58785;55.566;38.058;2022-08-27T04:23:54;100982.59;;;21.48;61.87
71126;BME280;58785;55.566;38.058;2022-08-27T04:26:21;100990.78;;;21.55;61.66
71126;BME280;58785;55.566;38.058;2022-08-27T04:28:46;100988.09;;;21.62;61.57
71126;BME280;58785;55.566;38.058;2022-08-27T04:31:12;100986.00;;;21.64;61.24
71126;BME280;58785;55.566;38.058;2022-08-27T04:33:39;100987.47;;;21.60;60.56
71126;BME280;58785;55.566;38.058;2022-08-27T04:36:08;100996.44;;;21.60;60.51
71126;BME280;58785;55.566;38.058;2022-08-27T04:38:34;100987.81;;;21.50;60.54
71126;BME280;58785;55.566;38.058;2022-08-27T04:41:05;100990.47;;;21.43;60.45
71126;BME280;58785;55.566;38.058;2022-08-27T04:43:55;100996.16;;;21.48;60.74
71126;BME280;58785;55.566;38.058;2022-08-27T04:48:50;100999.59;;;21.64;59.68
71126;BME280;58785;55.566;38.058;2022-08-27T04:51:17;100993.03;;;21.79;59.17
71126;BME280;58785;55.566;38.058;2022-08-27T04:53:43;100997.66;;;21.86;59.34
71126;BME280;58785;55.566;38.058;2022-08-27T04:56:12;101004.63;;;22.01;59.06
71126;BME280;58785;55.566;38.058;2022-08-27T04:58:38;100994.28;;;22.12;58.40
71126;BME280;58785;55.566;38.058;2022-08-27T05:01:04;100994.53;;;22.23;58.61
71126;BME280;58785;55.566;38.058;2022-08-27T05:03:30;100995.00;;;22.33;58.22
71126;BME280;58785;55.566;38.058;2022-08-27T05:06:02;100989.13;;;22.30;58.57
71126;BME280;58785;55.566;38.058;2022-08-27T05:08:27;100992.22;;;22.20;58.62
71126;BME280;58785;55.566;38.058;2022-08-27T05:10:53;100983.19;;;22.13;58.96
71126;BME280;58785;55.566;38.058;2022-08-27T05:13:21;100994.75;;;22.22;59.14
71126;BME280;58785;55.566;38.058;2022-08-27T05:15:55;100988.09;;;22.31;58.95
71126;BME280;58785;55.566;38.058;2022-08-27T05:18:22;100982.06;;;22.35;58.77
71126;BME280;58785;55.566;38.058;2022-08-27T05:20:48;100987.13;;;22.45;57.99
71126;BME280;58785;55.566;38.058;2022-08-27T05:23:16;100980.25;;;22.62;57.82
71126;BME280;58785;55.566;38.058;2022-08-27T05:25:45;100985.09;;;22.74;57.57
71126;BME280;58785;55.566;38.058;2022-08-27T05:28:12;100988.53;;;22.96;57.38
71126;BME280;58785;55.566;38.058;2022-08-27T05:30:40;100988.94;;;23.12;57.03
71126;BME280;58785;55.566;38.058;2022-08-27T05:33:06;100985.63;;;23.30;56.90
71126;BME280;58785;55.566;38.058;2022-08-27T05:35:44;100978.06;;;23.52;56.52
71126;BME280;58785;55.566;38.058;2022-08-27T05:38:11;100986.44;;;23.77;56.39
71126;BME280;58785;55.566;38.058;2022-08-27T05:40:37;100985.78;;;23.88;55.95
71126;BME280;58785;55.566;38.058;2022-08-27T05:43:05;100984.47;;;24.04;55.65
71126;BME280;58785;55.566;38.058;2022-08-27T05:45:39;100983.81;;;24.15;55.91
71126;BME280;58785;55.566;38.058;2022-08-27T05:48:06;100982.94;;;24.21;55.64
71126;BME280;58785;55.566;38.058;2022-08-27T05:50:31;100983.16;;;24.26;55.86
71126;BME280;58785;55.566;38.058;2022-08-27T05:53:05;100994.41;;;24.43;55.47
71126;BME280;58785;55.566;38.058;2022-08-27T05:55:39;100983.47;;;24.56;55.32
71126;BME280;58785;55.566;38.058;2022-08-27T05:58:06;100987.53;;;24.72;54.79
71126;BME280;58785;55.566;38.058;2022-08-27T06:00:36;100986.47;;;24.80;54.54
71126;BME280;58785;55.566;38.058;2022-08-27T06:03:20;100982.56;;;24.94;54.05
71126;BME280;58785;55.566;38.058;2022-08-27T06:05:45;100975.56;;;25.11;54.08
71126;BME280;58785;55.566;38.058;2022-08-27T06:08:13;100984.66;;;25.30;53.40
71126;BME280;58785;55.566;38.058;2022-08-27T06:10:41;100986.19;;;25.44;53.28
71126;BME280;58785;55.566;38.058;2022-08-27T06:13:09;100980.16;;;25.61;52.65
71126;BME280;58785;55.566;38.058;2022-08-27T06:15:35;100980.59;;;25.83;52.16
71126;BME280;58785;55.566;38.058;2022-08-27T06:18:00;100972.88;;;25.98;52.44
71126;BME280;58785;55.566;38.058;2022-08-27T06:20:33;100980.91;;;26.11;51.95
71126;BME280;58785;55.566;38.058;2022-08-27T06:22:59;100981.44;;;26.20;51.57
71126;BME280;58785;55.566;38.058;2022-08-27T06:25:25;100982.34;;;26.32;50.83
71126;BME280;58785;55.566;38.058;2022-08-27T06:27:50;100979.69;;;26.44;50.35
71126;BME280;58785;55.566;38.058;2022-08-27T06:30:16;100972.47;;;26.49;50.42
71126;BME280;58785;55.566;38.058;2022-08-27T06:32:44;100973.66;;;26.53;50.33
71126;BME280;58785;55.566;38.058;2022-08-27T06:35:09;100973.59;;;26.60;49.62
71126;BME280;58785;55.566;38.058;2022-08-27T06:37:35;100968.22;;;26.65;49.87
71126;BME280;58785;55.566;38.058;2022-08-27T06:40:01;100971.47;;;26.74;49.84
71126;BME280;58785;55.566;38.058;2022-08-27T06:42:26;100967.16;;;26.96;49.79
71126;BME280;58785;55.566;38.058;2022-08-27T06:44:52;100966.97;;;27.21;49.38
71126;BME280;58785;55.566;38.058;2022-08-27T06:47:18;100963.19;;;27.34;49.29
71126;BME280;58785;55.566;38.058;2022-08-27T06:49:44;100951.53;;;27.50;47.81
71126;BME280;58785;55.566;38.058;2022-08-27T06:52:10;100963.81;;;27.71;47.18
71126;BME280;58785;55.566;38.058;2022-08-27T06:54:35;100961.53;;;27.80;46.04
71126;BME280;58785;55.566;38.058;2022-08-27T06:57:01;100956.97;;;27.85;45.64
71126;BME280;58785;55.566;38.058;2022-08-27T06:59:27;100953.00;;;28.04;45.99
71126;BME280;58785;55.566;38.058;2022-08-27T07:01:53;100947.75;;;28.15;45.22
71126;BME280;58785;55.566;38.058;2022-08-27T07:04:21;100953.22;;;28.26;45.05
71126;BME280;58785;55.566;38.058;2022-08-27T07:06:48;100951.75;;;28.35;44.99
71126;BME280;58785;55.566;38.058;2022-08-27T07:09:14;100940.97;;;28.46;44.90
71126;BME280;58785;55.566;38.058;2022-08-27T07:11:41;100945.59;;;28.57;44.97
71126;BME280;58785;55.566;38.058;2022-08-27T07:14:08;100945.88;;;28.72;44.65
71126;BME280;58785;55.566;38.058;2022-08-27T07:16:34;100945.31;;;28.87;44.17
71126;BME280;58785;55.566;38.058;2022-08-27T07:19:01;100945.84;;;29.01;44.38
71126;BME280;58785;55.566;38.058;2022-08-27T07:21:27;100947.16;;;29.15;43.52
71126;BME280;58785;55.566;38.058;2022-08-27T07:23:54;100948.69;;;29.23;42.89
71126;BME280;58785;55.566;38.058;2022-08-27T07:26:23;100941.34;;;29.28;42.50
71126;BME280;58785;55.566;38.058;2022-08-27T07:28:50;100933.19;;;29.33;42.12
71126;BME280;58785;55.566;38.058;2022-08-27T07:31:21;100931.00;;;29.35;41.46
71126;BME280;58785;55.566;38.058;2022-08-27T07:33:47;100940.06;;;29.36;41.37
71126;BME280;58785;55.566;38.058;2022-08-27T07:36:13;100942.50;;;29.32;42.55
71126;BME280;58785;55.566;38.058;2022-08-27T07:38:39;100941.50;;;29.38;42.47
71126;BME280;58785;55.566;38.058;2022-08-27T07:41:10;100939.66;;;29.44;42.22
71126;BME280;58785;55.566;38.058;2022-08-27T07:43:36;100942.00;;;29.52;42.34
71126;BME280;58785;55.566;38.058;2022-08-27T07:46:22;100937.22;;;29.64;42.75
71126;BME280;58785;55.566;38.058;2022-08-27T07:48:49;100939.13;;;29.81;42.84
71126;BME280;58785;55.566;38.058;2022-08-27T07:51:17;100940.47;;;30.00;41.42
71126;BME280;58785;55.566;38.058;2022-08-27T07:53:44;100938.00;;;30.20;40.90
71126;BME280;58785;55.566;38.058;2022-08-27T07:56:10;100925.72;;;30.28;39.41
71126;BME280;58785;55.566;38.058;2022-08-27T07:58:36;100930.94;;;30.29;39.16
71126;BME280;58785;55.566;38.058;2022-08-27T08:01:02;100929.84;;;30.30;39.11
71126;BME280;58785;55.566;38.058;2022-08-27T08:03:27;100927.75;;;30.38;38.88
71126;BME280;58785;55.566;38.058;2022-08-27T08:05:54;100925.69;;;30.55;38.81
71126;BME280;58785;55.566;38.058;2022-08-27T08:08:21;100923.66;;;30.67;39.50
71126;BME280;58785;55.566;38.058;2022-08-27T08:10:47;100937.28;;;30.79;39.04
71126;BME280;58785;55.566;38.058;2022-08-27T08:13:14;100921.59;;;30.84;38.24
71126;BME280;58785;55.566;38.058;2022-08-27T08:15:43;100918.03;;;30.84;37.87
71126;BME280;58785;55.566;38.058;2022-08-27T08:18:09;100923.53;;;30.84;37.45
71126;BME280;58785;55.566;38.058;2022-08-27T08:20:37;100918.81;;;30.79;37.46
71126;BME280;58785;55.566;38.058;2022-08-27T08:23:02;100923.53;;;30.84;38.04
71126;BME280;58785;55.566;38.058;2022-08-27T08:25:28;100921.19;;;30.98;37.84
71126;BME280;58785;55.566;38.058;2022-08-27T08:27:56;100921.00;;;31.09;38.25
71126;BME280;58785;55.566;38.058;2022-08-27T08:30:22;100916.34;;;31.15;38.06
71126;BME280;58785;55.566;38.058;2022-08-27T08:32:48;100917.25;;;31.21;37.78
71126;BME280;58785;55.566;38.058;2022-08-27T08:35:13;100912.56;;;31.21;37.51
71126;BME280;58785;55.566;38.058;2022-08-27T08:37:41;100899.06;;;31.25;37.58
71126;BME280;58785;55.566;38.058;2022-08-27T08:40:08;100911.53;;;31.32;36.81
71126;BME280;58785;55.566;38.058;2022-08-27T08:42:43;100910.72;;;31.32;36.57
71126;BME280;58785;55.566;38.058;2022-08-27T08:45:13;100893.06;;;31.33;36.21
71126;BME280;58785;55.566;38.058;2022-08-27T08:47:47;100901.91;;;31.35;35.79
71126;BME280;58785;55.566;38.058;2022-08-27T08:50:21;100898.59;;;31.33;35.72
71126;BME280;58785;55.566;38.058;2022-08-27T08:52:56;100887.28;;;31.34;35.66
71126;BME280;58785;55.566;38.058;2022-08-27T08:55:35;100896.44;;;31.40;34.95
71126;BME280;58785;55.566;38.058;2022-08-27T09:00:34;100885.06;;;31.31;34.77
71126;BME280;58785;55.566;38.058;2022-08-27T09:03:01;100883.13;;;31.27;34.58
71126;BME280;58785;55.566;38.058;2022-08-27T09:05:27;100878.13;;;31.24;34.31
71126;BME280;58785;55.566;38.058;2022-08-27T09:11:11;100879.28;;;31.33;34.14
71126;BME280;58785;55.566;38.058;2022-08-27T09:13:38;100878.75;;;31.36;34.22
71126;BME280;58785;55.566;38.058;2022-08-27T09:16:05;100877.69;;;31.42;33.94
71126;BME280;58785;55.566;38.058;2022-08-27T09:18:35;100879.34;;;31.43;33.73
71126;BME280;58785;55.566;38.058;2022-08-27T09:21:09;100871.63;;;31.45;34.00
71126;BME280;58785;55.566;38.058;2022-08-27T09:23:58;100872.22;;;31.47;33.92
71126;BME280;58785;55.566;38.058;2022-08-27T09:26:28;100871.13;;;31.53;33.92
71126;BME280;58785;55.566;38.058;2022-08-27T09:28:59;100868.41;;;31.58;33.87
71126;BME280;58785;55.566;38.058;2022-08-27T09:31:47;100865.94;;;31.62;33.42
71126;BME280;58785;55.566;38.058;2022-08-27T09:34:15;100867.03;;;31.66;33.03
71126;BME280;58785;55.566;38.058;2022-08-27T09:36:56;100867.34;;;31.69;32.62
71126;BME280;58785;55.566;38.058;2022-08-27T09:39:27;100867.09;;;31.71;32.60
71126;BME280;58785;55.566;38.058;2022-08-27T09:41:54;100863.78;;;31.69;31.79
71126;BME280;58785;55.566;38.058;2022-08-27T09:44:20;100862.91;;;31.58;31.37
71126;BME280;58785;55.566;38.058;2022-08-27T09:46:57;100866.50;;;31.64;31.77
71126;BME280;58785;55.566;38.058;2022-08-27T09:49:24;100862.94;;;31.68;31.45
71126;BME280;58785;55.566;38.058;2022-08-27T09:51:51;100861.84;;;31.74;31.73
71126;BME280;58785;55.566;38.058;2022-08-27T09:54:40;100867.16;;;31.81;31.01
71126;BME280;58785;55.566;38.058;2022-08-27T09:57:08;100847.59;;;31.88;31.68
71126;BME280;58785;55.566;38.058;2022-08-27T09:59:52;100857.25;;;31.95;32.02
71126;BME280;58785;55.566;38.058;2022-08-27T10:02:21;100847.91;;;32.01;31.90
71126;BME280;58785;55.566;38.058;2022-08-27T10:04:50;100855.94;;;32.08;31.68
71126;BME280;58785;55.566;38.058;2022-08-27T10:07:37;100860.63;;;32.08;32.22
71126;BME280;58785;55.566;38.058;2022-08-27T10:10:15;100859.81;;;32.07;31.56
71126;BME280;58785;55.566;38.058;2022-08-27T10:12:54;100854.28;;;32.07;31.59
71126;BME280;58785;55.566;38.058;2022-08-27T10:15:23;100850.97;;;32.10;32.17
71126;BME280;58785;55.566;38.058;2022-08-27T10:18:09;100855.09;;;32.08;32.21
71126;BME280;58785;55.566;38.058;2022-08-27T10:23:24;100852.28;;;31.87;31.85
71126;BME280;58785;55.566;38.058;2022-08-27T10:25:56;100861.38;;;31.83;32.03
71126;BME280;58785;55.566;38.058;2022-08-27T10:28:43;100846.78;;;31.87;31.78
71126;BME280;58785;55.566;38.058;2022-08-27T10:37:04;100845.13;;;31.96;30.97
71126;BME280;58785;55.566;38.058;2022-08-27T10:53:03;100850.19;;;32.35;31.16
71126;BME280;58785;55.566;38.058;2022-08-27T10:55:39;100848.53;;;32.29;30.47
71126;BME280;58785;55.566;38.058;2022-08-27T11:06:01;100845.72;;;32.14;30.67
71126;BME280;58785;55.566;38.058;2022-08-27T11:08:42;100842.97;;;32.14;31.02
71126;BME280;58785;55.566;38.058;2022-08-27T11:11:17;100836.03;;;32.06;30.88
71126;BME280;58785;55.566;38.058;2022-08-27T11:13:48;100838.22;;;31.94;31.14
71126;BME280;58785;55.566;38.058;2022-08-27T11:16:26;100845.91;;;31.87;30.87
71126;BME280;58785;55.566;38.058;2022-08-27T11:19:05;100828.47;;;31.71;30.94
71126;BME280;58785;55.566;38.058;2022-08-27T11:21:50;100835.03;;;31.60;31.29
71126;BME280;58785;55.566;38.058;2022-08-27T11:24:48;100837.78;;;31.55;30.75
71126;BME280;58785;55.566;38.058;2022-08-27T11:27:21;100829.75;;;31.48;31.14
71126;BME280;58785;55.566;38.058;2022-08-27T11:29:54;100839.16;;;31.52;30.95
71126;BME280;58785;55.566;38.058;2022-08-27T11:32:42;100838.31;;;31.52;30.75
71126;BME280;58785;55.566;38.058;2022-08-27T11:35:17;100834.47;;;31.53;30.40
71126;BME280;58785;55.566;38.058;2022-08-27T11:43:11;100827.06;;;31.63;30.45
71126;BME280;58785;55.566;38.058;2022-08-27T11:45:49;100826.81;;;31.70;30.01
71126;BME280;58785;55.566;38.058;2022-08-27T11:51:03;100823.81;;;31.77;31.10
71126;BME280;58785;55.566;38.058;2022-08-27T11:53:33;100823.56;;;31.78;31.02
71126;BME280;58785;55.566;38.058;2022-08-27T11:56:36;100830.19;;;31.77;30.75
71126;BME280;58785;55.566;38.058;2022-08-27T12:01:55;100809.72;;;31.73;30.27
71126;BME280;58785;55.566;38.058;2022-08-27T12:07:26;100816.88;;;31.69;29.38
71126;BME280;58785;55.566;38.058;2022-08-27T12:12:28;100816.88;;;31.69;28.55
71126;BME280;58785;55.566;38.058;2022-08-27T12:17:43;100814.38;;;31.62;29.58
71126;BME280;58785;55.566;38.058;2022-08-27T12:23:04;100808.56;;;31.59;30.05
71126;BME280;58785;55.566;38.058;2022-08-27T12:29:15;100803.81;;;31.44;30.06
71126;BME280;58785;55.566;38.058;2022-08-27T12:31:43;100795.50;;;31.29;29.70
71126;BME280;58785;55.566;38.058;2022-08-27T12:34:24;100795.69;;;31.17;30.11
71126;BME280;58785;55.566;38.058;2022-08-27T12:36:53;100783.22;;;31.09;29.78
71126;BME280;58785;55.566;38.058;2022-08-27T12:39:27;100785.66;;;31.06;29.60
71126;BME280;58785;55.566;38.058;2022-08-27T12:41:53;100791.19;;;31.06;30.08
71126;BME280;58785;55.566;38.058;2022-08-27T12:44:26;100789.53;;;31.05;30.02
71126;BME280;58785;55.566;38.058;2022-08-27T12:47:18;100785.38;;;30.97;29.93
71126;BME280;58785;55.566;38.058;2022-08-27T12:49:46;100778.44;;;30.89;30.51
71126;BME280;58785;55.566;38.058;2022-08-27T12:58:22;100771.47;;;30.77;30.15
71126;BME280;58785;55.566;38.058;2022-08-27T13:03:34;100772.84;;;30.79;30.25
71126;BME280;58785;55.566;38.058;2022-08-27T13:06:19;100775.34;;;30.81;29.96
71126;BME280;58785;55.566;38.058;2022-08-27T13:08:46;100771.78;;;30.85;30.20
71126;BME280;58785;55.566;38.058;2022-08-27T13:11:23;100777.88;;;30.87;30.67
71126;BME280;58785;55.566;38.058;2022-08-27T13:13:50;100772.91;;;30.89;30.73
71126;BME280;58785;55.566;38.058;2022-08-27T13:16:17;100766.31;;;30.90;30.84
71126;BME280;58785;55.566;38.058;2022-08-27T13:18:48;100761.63;;;30.91;30.59
71126;BME280;58785;55.566;38.058;2022-08-27T13:21:20;100768.78;;;30.92;31.15
71126;BME280;58785;55.566;38.058;2022-08-27T13:23:56;100774.31;;;30.92;31.03
71126;BME280;58785;55.566;38.058;2022-08-27T13:26:24;100763.81;;;30.89;30.89
71126;BME280;58785;55.566;38.058;2022-08-27T13:28:51;100765.16;;;30.86;30.86
71126;BME280;58785;55.566;38.058;2022-08-27T13:31:19;100749.44;;;30.82;30.92
71126;BME280;58785;55.566;38.058;2022-08-27T13:33:46;100764.03;;;30.82;31.15
71126;BME280;58785;55.566;38.058;2022-08-27T13:36:12;100754.34;;;30.75;31.34
71126;BME280;58785;55.566;38.058;2022-08-27T13:38:41;100762.06;;;30.73;31.51
71126;BME280;58785;55.566;38.058;2022-08-27T13:41:11;100750.19;;;30.67;31.40
71126;BME280;58785;55.566;38.058;2022-08-27T13:43:45;100756.44;;;30.62;31.57
71126;BME280;58785;55.566;38.058;2022-08-27T13:46:16;100746.47;;;30.56;31.79
71126;BME280;58785;55.566;38.058;2022-08-27T13:48:44;100749.50;;;30.55;31.37
71126;BME280;58785;55.566;38.058;2022-08-27T13:51:12;100751.13;;;30.51;31.79
71126;BME280;58785;55.566;38.058;2022-08-27T13:53:44;100747.22;;;30.42;32.11
71126;BME280;58785;55.566;38.058;2022-08-27T13:56:32;100756.59;;;30.46;32.00
71126;BME280;58785;55.566;38.058;2022-08-27T13:59:14;100745.25;;;30.37;32.15
71126;BME280;58785;55.566;38.058;2022-08-27T14:02:00;100756.22;;;30.32;32.16
71126;BME280;58785;55.566;38.058;2022-08-27T14:07:13;100750.00;;;30.15;32.53
71126;BME280;58785;55.566;38.058;2022-08-27T14:09:46;100747.97;;;30.05;32.50
71126;BME280;58785;55.566;38.058;2022-08-27T14:12:40;100748.38;;;29.92;32.90
71126;BME280;58785;55.566;38.058;2022-08-27T14:15:58;100758.47;;;29.81;33.09